Time;durP1;ratioP1;P1;durP2;ratioP2;P2;SDS_P1;SDS_P2;PMS_P1;PMS_P2;Temp;Humidity;BMP_temperature;BMP_pressure;BME280_temperature;BME280_humidity;BME280_pressure;Samples;Min_cycle;Max_cycle;Signal;HPM_P1;HPM_P2
2023/01/20 01:01:30;;;;;;;6.90;1.70;;;;;;;7.73;86.92;94124.66;5004866;28;20519;-75
2023/01/20 01:03:56;;;;;;;3.90;1.60;;;;;;;7.40;86.38;94079.94;4995291;28;20300;-74
2023/01/20 01:06:22;;;;;;;4.63;1.73;;;;;;;7.70;86.86;94090.16;5013353;28;20408;-74
2023/01/20 01:08:48;;;;;;;2.92;1.48;;;;;;;7.83;86.86;94128.28;5013143;28;20069;-74
2023/01/20 01:11:13;;;;;;;2.75;1.13;;;;;;;7.72;86.62;94132.88;5012986;28;20499;-74
2023/01/20 01:13:39;;;;;;;1.67;1.35;;;;;;;7.79;86.28;94125.41;5012887;28;20108;-74
2023/01/20 01:16:10;;;;;;;5.22;1.60;;;;;;;7.53;85.96;94105.66;5012766;28;20482;-74
2023/01/20 01:18:35;;;;;;;2.83;1.67;;;;;;;7.55;85.55;94092.97;5012940;28;20512;-74
2023/01/20 01:21:05;;;;;;;1.75;1.08;;;;;;;7.89;85.87;94132.41;5012915;28;20116;-75
2023/01/20 01:23:31;;;;;;;3.88;1.23;;;;;;;7.11;84.61;94006.91;4994575;28;20054;-74
2023/01/20 01:25:56;;;;;;;2.88;1.27;;;;;;;7.64;84.55;94102.59;5012884;28;20044;-74
2023/01/20 01:28:21;;;;;;;2.88;1.02;;;;;;;7.57;84.60;94080.25;5012760;28;20033;-74
2023/01/20 01:30:47;;;;;;;2.05;1.02;;;;;;;7.94;84.05;94116.50;5012582;28;20610;-74
2023/01/20 01:33:12;;;;;;;2.05;1.10;;;;;;;7.96;84.08;94101.19;4994396;28;20041;-74
2023/01/20 01:35:38;;;;;;;2.40;0.95;;;;;;;7.78;83.47;94067.63;5012398;28;20184;-74
2023/01/20 01:38:03;;;;;;;1.67;0.95;;;;;;;7.52;83.55;94043.38;5012102;28;20125;-74
2023/01/20 01:40:28;;;;;;;3.17;1.02;;;;;;;7.84;83.99;94082.34;5012282;28;20428;-74
2023/01/20 01:42:54;;;;;;;1.52;0.70;;;;;;;7.93;83.86;94081.44;5012083;28;20041;-74
2023/01/20 01:45:22;;;;;;;2.45;1.00;;;;;;;7.65;83.40;94042.69;4994331;28;20048;-74
2023/01/20 01:47:53;;;;;;;1.38;0.75;;;;;;;7.65;82.83;94048.75;5012128;28;20042;-74
2023/01/20 01:50:50;;;;;;;0.75;0.60;;;;;;;8.19;82.59;94120.72;5012243;28;20041;-73
2023/01/20 01:53:16;;;;;;;2.60;0.90;;;;;;;8.24;82.29;94129.34;5011798;28;20042;-73
2023/01/20 01:55:46;;;;;;;3.83;0.70;;;;;;;8.34;82.57;94139.81;5011965;28;20048;-74
2023/01/20 01:58:15;;;;;;;1.67;0.60;;;;;;;7.92;83.33;94069.31;5012167;28;20038;-73
2023/01/20 02:00:42;;;;;;;2.95;0.60;;;;;;;8.35;82.66;94109.69;4994832;28;20045;-74
2023/01/20 02:03:08;;;;;;;1.58;0.63;;;;;;;8.59;82.12;94112.28;5011741;28;20496;-73
2023/01/20 02:05:36;;;;;;;2.58;0.68;;;;;;;8.36;80.97;94076.94;5009524;28;20132;-74
2023/01/20 02:08:02;;;;;;;1.35;0.75;;;;;;;8.43;79.48;94090.56;5031502;28;20029;-74
2023/01/20 02:10:28;;;;;;;3.33;0.68;;;;;;;8.59;79.56;94109.63;5031520;28;20042;-74
2023/01/20 02:12:54;;;;;;;1.42;0.70;;;;;;;8.49;79.83;94094.69;5031468;28;20039;-73
2023/01/20 02:15:27;;;;;;;1.85;0.85;;;;;;;8.59;80.10;94108.84;5013998;28;20045;-73
2023/01/20 02:18:04;;;;;;;1.42;0.70;;;;;;;8.72;79.71;94094.91;5013436;28;20048;-74
2023/01/20 02:21:02;;;;;;;3.17;0.90;;;;;;;8.49;80.30;94088.63;5031722;28;20507;-74
2023/01/20 02:23:56;;;;;;;1.02;0.73;;;;;;;8.04;80.27;94055.66;5002973;28;20423;-74
2023/01/20 02:26:24;;;;;;;2.40;0.90;;;;;;;8.48;81.00;94093.13;5031543;28;20037;-73
2023/01/20 02:29:19;;;;;;;1.50;0.80;;;;;;;8.33;80.60;94081.97;5013391;28;20063;-73
2023/01/20 02:32:00;;;;;;;6.78;1.10;;;;;;;8.19;80.13;94083.72;4990726;28;20049;-76
2023/01/20 02:34:36;;;;;;;4.80;0.90;;;;;;;8.07;81.01;94031.34;5031121;28;20063;-77
2023/01/20 02:37:22;;;;;;;1.92;0.93;;;;;;;8.33;81.83;94063.50;5012772;28;20203;-77
2023/01/20 02:40:11;;;;;;;2.63;0.90;;;;;;;8.52;80.79;94075.63;5012987;28;20044;-77
2023/01/20 02:42:44;;;;;;;1.13;0.80;;;;;;;8.63;81.56;94065.69;5030610;28;20038;-77
2023/01/20 02:45:34;;;;;;;3.83;1.30;;;;;;;8.63;80.31;94062.25;5031091;28;20072;-77
2023/01/20 02:48:12;;;;;;;2.83;1.10;;;;;;;8.15;79.99;93983.19;5030741;28;20099;-77
2023/01/20 02:50:52;;;;;;;3.90;1.10;;;;;;;8.76;79.84;94064.97;5012890;28;20401;-77
2023/01/20 02:53:20;;;;;;;4.78;1.40;;;;;;;8.49;79.85;94010.16;5031127;28;20041;-78
2023/01/20 02:55:47;;;;;;;2.55;1.27;;;;;;;8.44;79.53;93994.38;5030709;28;20458;-78
2023/01/20 02:58:22;;;;;;;1.52;1.00;;;;;;;8.93;80.21;94050.41;5030675;28;20095;-77
2023/01/20 03:00:53;;;;;;;2.08;0.70;;;;;;;8.90;80.10;94020.84;5031036;28;20128;-78
2023/01/20 03:03:24;;;;;;;3.13;0.80;;;;;;;8.77;78.87;93991.75;5011593;28;20524;-78
2023/01/20 03:05:54;;;;;;;3.77;0.90;;;;;;;8.75;78.02;93999.16;4993059;28;20065;-78
2023/01/20 03:08:22;;;;;;;4.20;0.98;;;;;;;8.73;78.38;93991.53;5011038;28;20484;-78
2023/01/20 03:10:51;;;;;;;1.45;0.90;;;;;;;8.45;79.28;93990.66;5010548;28;20124;-78
2023/01/20 03:13:31;;;;;;;2.25;0.52;;;;;;;8.70;78.54;94013.22;5011082;28;20030;-77
2023/01/20 03:15:56;;;;;;;1.95;0.75;;;;;;;8.82;79.24;94047.16;5010587;28;20128;-78
2023/01/20 03:18:23;;;;;;;1.10;0.80;;;;;;;8.92;78.77;94048.88;4992959;28;20140;-78
2023/01/20 03:20:48;;;;;;;2.15;0.80;;;;;;;8.53;79.09;93989.22;4993016;28;20048;-77
2023/01/20 03:23:14;;;;;;;2.25;0.95;;;;;;;8.95;80.22;94051.69;5010753;28;20034;-78
2023/01/20 03:25:40;;;;;;;0.55;0.47;;;;;;;8.98;79.44;94052.97;5010472;28;20041;-78
2023/01/20 03:28:05;;;;;;;1.23;0.80;;;;;;;9.03;78.96;94044.97;5010407;28;20068;-77
2023/01/20 03:30:31;;;;;;;1.25;0.85;;;;;;;8.68;78.58;93985.53;5010733;28;20042;-77
2023/01/20 03:32:57;;;;;;;1.88;1.05;;;;;;;9.04;79.02;94054.47;5010411;28;20519;-78
2023/01/20 03:35:23;;;;;;;2.22;1.60;;;;;;;8.37;80.31;93970.19;5010808;28;20041;-79
2023/01/20 03:37:48;;;;;;;3.50;1.50;;;;;;;8.93;81.23;94048.56;4992488;28;20034;-79
2023/01/20 03:40:14;;;;;;;3.80;1.80;;;;;;;9.04;79.72;94052.59;5010045;28;20033;-78
2023/01/20 03:43:03;;;;;;;4.63;1.60;;;;;;;9.04;80.22;94051.81;5010481;28;20475;-78
2023/01/20 03:45:39;;;;;;;7.82;1.75;;;;;;;8.98;81.62;94056.41;4992330;28;20085;-79
2023/01/20 03:48:14;;;;;;;5.57;1.60;;;;;;;8.92;82.40;94057.59;5010003;28;20038;-78
2023/01/20 03:51:04;;;;;;;2.13;1.30;;;;;;;8.76;83.00;94051.75;5009947;28;20416;-79
2023/01/20 03:53:44;;;;;;;4.78;1.65;;;;;;;8.81;83.35;94037.66;5009899;28;20038;-79
2023/01/20 03:57:03;;;;;;;5.35;1.52;;;;;;;8.90;84.04;94026.13;5009526;28;20111;-78
2023/01/20 03:59:33;;;;;;;3.67;1.70;;;;;;;8.67;84.85;93976.03;4967587;28;20054;-78
2023/01/20 04:02:02;;;;;;;3.67;1.23;;;;;;;8.87;84.00;93999.47;5000075;28;20072;-78
2023/01/20 04:04:28;;;;;;;3.10;0.80;;;;;;;8.76;83.01;93961.88;5011482;28;20084;-78
2023/01/20 04:06:54;;;;;;;2.40;1.15;;;;;;;9.07;84.46;94008.94;5029445;28;20051;-78
2023/01/20 04:09:28;;;;;;;3.90;1.92;;;;;;;9.07;84.96;94007.06;5011583;28;20041;-78
2023/01/20 04:11:53;;;;;;;9.82;2.08;;;;;;;8.97;84.59;94015.19;5029233;28;20504;-78
2023/01/20 04:14:19;;;;;;;4.03;2.65;;;;;;;8.45;83.34;93924.63;5028972;28;20120;-79
2023/01/20 04:17:11;;;;;;;6.97;3.65;;;;;;;8.71;84.17;93958.50;5011375;28;20064;-79
2023/01/20 04:19:37;;;;;;;7.18;2.90;;;;;;;8.58;83.87;93911.72;5007469;28;20045;-78
2023/01/20 04:22:30;;;;;;;5.45;3.10;;;;;;;8.96;83.86;93986.38;5029261;28;20103;-78
2023/01/20 04:25:02;;;;;;;6.80;2.63;;;;;;;8.49;83.94;93912.38;5028976;28;20535;-78
2023/01/20 04:27:27;;;;;;;4.80;2.40;;;;;;;8.51;84.35;93893.59;5029397;28;20029;-78
2023/01/20 04:29:53;;;;;;;9.82;1.98;;;;;;;8.54;84.00;93898.31;5011113;28;20120;-78
2023/01/20 04:32:18;;;;;;;4.55;1.83;;;;;;;8.99;83.05;93973.38;5011162;28;20048;-78
2023/01/20 04:34:44;;;;;;;3.60;1.60;;;;;;;8.24;82.29;93869.75;5011257;28;20048;-78
2023/01/20 04:37:09;;;;;;;5.97;1.90;;;;;;;8.32;82.88;93877.00;5028833;28;20036;-78
2023/01/20 04:39:34;;;;;;;3.95;2.10;;;;;;;8.96;83.44;93973.16;5029038;28;20411;-78
2023/01/20 04:42:00;;;;;;;4.28;2.10;;;;;;;8.65;84.09;93909.47;5011576;28;20499;-80
2023/01/20 04:44:25;;;;;;;4.55;1.80;;;;;;;8.88;84.74;93938.38;5029370;28;20041;-80
2023/01/20 04:46:55;;;;;;;4.10;2.00;;;;;;;8.81;84.80;93947.78;5029327;28;20077;-78
2023/01/20 04:49:21;;;;;;;5.50;1.50;;;;;;;8.77;84.09;93946.81;5011218;28;20041;-78
2023/01/20 04:51:46;;;;;;;2.30;1.30;;;;;;;8.51;84.34;93897.03;5011084;28;20038;-78
2023/01/20 04:54:12;;;;;;;3.85;1.35;;;;;;;9.08;84.42;93973.47;5028982;28;20494;-77
2023/01/20 04:56:37;;;;;;;2.75;1.40;;;;;;;8.88;84.62;93942.88;5004264;28;20045;-78
2023/01/20 04:59:03;;;;;;;4.45;1.58;;;;;;;8.54;83.96;93884.31;5009659;28;20471;-77
2023/01/20 05:01:28;;;;;;;3.10;1.25;;;;;;;8.77;83.71;93937.00;4994671;28;20053;-78
2023/01/20 05:03:53;;;;;;;3.65;1.60;;;;;;;8.95;83.13;93948.56;5012409;28;20042;-77
2023/01/20 05:06:19;;;;;;;4.70;1.50;;;;;;;8.48;83.36;93892.31;4994010;28;20129;-77
2023/01/20 05:08:44;;;;;;;4.18;1.75;;;;;;;9.07;82.96;93996.50;4991698;28;20046;-78
2023/01/20 05:11:10;;;;;;;6.55;2.78;;;;;;;8.83;83.23;94011.72;4992269;28;20427;-79
2023/01/20 05:13:38;;;;;;;9.40;2.50;;;;;;;7.73;83.79;93925.97;4995342;28;20574;-78
2023/01/20 05:16:05;;;;;;;6.40;1.80;;;;;;;7.93;86.49;94020.72;4992040;28;20045;-79
2023/01/20 05:18:32;;;;;;;4.28;1.98;;;;;;;7.48;88.32;93960.59;5007674;28;20049;-79
2023/01/20 05:20:58;;;;;;;6.88;2.65;;;;;;;7.32;88.57;93892.19;4999986;28;20758;-77
2023/01/20 05:23:23;;;;;;;6.30;2.25;;;;;;;7.82;88.85;93982.31;5024894;28;20136;-77
2023/01/20 05:25:52;;;;;;;11.18;2.40;;;;;;;7.33;88.31;93932.53;5011458;28;20038;-76
2023/01/20 05:28:18;;;;;;;9.05;2.97;;;;;;;7.81;90.10;94012.41;5013233;28;20034;-77
2023/01/20 05:30:44;;;;;;;15.95;2.70;;;;;;;7.38;90.15;93981.84;4999118;28;20456;-77
2023/01/20 05:33:10;;;;;;;7.78;2.70;;;;;;;7.68;91.77;94023.66;5004425;28;20038;-77
2023/01/20 05:35:39;;;;;;;13.40;3.35;;;;;;;7.32;92.93;94002.22;4989107;28;20080;-79
2023/01/20 05:38:05;;;;;;;9.23;4.47;;;;;;;7.29;94.25;93994.84;5003267;28;20029;-78
2023/01/20 05:40:30;;;;;;;13.20;4.20;;;;;;;7.51;93.94;93995.13;5017202;28;20546;-79
2023/01/20 05:42:59;;;;;;;14.05;4.10;;;;;;;6.96;92.38;93923.50;5010669;28;20041;-78
2023/01/20 05:45:25;;;;;;;9.25;3.60;;;;;;;7.46;92.20;94007.59;4997325;28;20471;-79
2023/01/20 05:47:55;;;;;;;14.20;3.90;;;;;;;7.78;92.27;94025.41;5008359;28;20047;-78
2023/01/20 05:50:20;;;;;;;13.70;4.65;;;;;;;7.77;92.52;93992.94;4994791;28;20041;-79
2023/01/20 05:52:46;;;;;;;15.32;4.43;;;;;;;7.91;91.99;93985.09;5012831;28;20110;-79
2023/01/20 05:55:11;;;;;;;16.30;4.57;;;;;;;8.23;91.87;94019.50;5010745;28;20047;-79
2023/01/20 05:57:36;;;;;;;9.65;4.57;;;;;;;8.32;91.01;94025.72;5015634;28;20069;-79
2023/01/20 06:00:03;;;;;;;7.65;4.30;;;;;;;8.53;91.25;94013.00;5011251;28;20041;-79
2023/01/20 06:02:31;;;;;;;7.30;3.88;;;;;;;8.58;90.93;94012.13;5005096;28;20140;-80
2023/01/20 06:05:00;;;;;;;10.82;3.70;;;;;;;8.00;89.90;93936.66;4989913;28;20041;-80
2023/01/20 06:07:29;;;;;;;5.57;3.50;;;;;;;7.98;88.83;93938.00;5014977;28;20034;-82
2023/01/20 06:09:55;;;;;;;6.18;3.38;;;;;;;8.44;89.78;93991.75;4996590;28;20046;-81
2023/01/20 06:12:21;;;;;;;6.05;3.58;;;;;;;8.42;88.89;93993.88;5001340;28;20741;-80
2023/01/20 06:14:49;;;;;;;11.32;3.42;;;;;;;8.15;88.78;93938.28;4998320;28;20124;-81
2023/01/20 06:17:15;;;;;;;5.70;3.05;;;;;;;8.48;88.54;93995.34;4992584;28;20104;-80
2023/01/20 06:19:40;;;;;;;7.75;3.75;;;;;;;8.07;88.88;93942.34;4985358;28;20045;-83
2023/01/20 06:22:07;;;;;;;11.23;4.47;;;;;;;8.60;88.79;94010.00;4970303;28;20475;-81
2023/01/20 06:24:32;;;;;;;43.80;5.45;;;;;;;8.88;89.19;94033.56;5001174;28;20067;-80
2023/01/20 06:26:58;;;;;;;41.08;6.05;;;;;;;8.49;88.91;93978.44;4981631;28;20074;-81
2023/01/20 06:29:23;;;;;;;13.10;4.88;;;;;;;8.87;88.82;94036.50;4985078;28;20065;-82
2023/01/20 06:31:48;;;;;;;8.80;3.92;;;;;;;8.32;87.89;93977.38;4984167;28;20041;-80
2023/01/20 06:34:14;;;;;;;9.80;4.70;;;;;;;8.84;87.72;94050.31;5007973;28;20817;-81
2023/01/20 06:36:39;;;;;;;12.65;4.40;;;;;;;8.10;89.53;93901.38;5001217;28;20050;-80
2023/01/20 06:39:05;;;;;;;7.78;5.13;;;;;;;8.01;89.22;93901.25;5007690;28;20038;-82
2023/01/20 06:41:30;;;;;;;10.75;4.75;;;;;;;8.49;88.91;93972.38;5000437;28;20132;-81
2023/01/20 06:43:55;;;;;;;8.73;4.00;;;;;;;8.67;88.54;94000.63;5010219;28;20065;-81
2023/01/20 06:46:21;;;;;;;13.60;5.18;;;;;;;7.76;89.18;93867.34;5003244;28;20045;-80
2023/01/20 06:48:47;;;;;;;14.63;5.72;;;;;;;7.65;89.36;93881.75;5002805;28;20103;-80
2023/01/20 06:51:15;;;;;;;14.35;7.05;;;;;;;8.50;90.29;94016.22;5005614;28;20041;-81
2023/01/20 06:53:41;;;;;;;13.07;6.15;;;;;;;8.59;89.80;94008.41;5006398;28;20041;-80
2023/01/20 06:56:09;;;;;;;11.95;6.28;;;;;;;8.31;89.33;93947.56;5003522;28;20082;-81
2023/01/20 06:58:34;;;;;;;14.25;6.65;;;;;;;8.69;89.51;94006.41;4985610;28;20049;-81
2023/01/20 07:01:07;;;;;;;16.90;8.40;;;;;;;8.69;89.20;94013.56;5002101;28;20033;-79
2023/01/20 07:03:33;;;;;;;15.55;8.23;;;;;;;7.51;89.46;93815.72;4953407;28;20569;-78
2023/01/20 07:06:02;;;;;;;17.15;8.45;;;;;;;7.56;89.36;93815.63;4961880;28;20765;-82
2023/01/20 07:08:28;;;;;;;17.25;10.05;;;;;;;8.94;89.03;94007.03;4950704;28;20243;-79
2023/01/20 07:10:53;;;;;;;15.52;9.20;;;;;;;7.70;87.59;93827.03;4959768;28;20046;-82
2023/01/20 07:13:19;;;;;;;19.30;8.52;;;;;;;8.75;87.25;93989.38;4955811;28;20483;-82
2023/01/20 07:15:44;;;;;;;22.73;8.40;;;;;;;8.98;86.86;94000.09;4975059;28;20049;-80
2023/01/20 07:18:10;;;;;;;14.48;8.85;;;;;;;8.92;86.70;93993.34;4952728;28;20053;-80
2023/01/20 07:20:37;;;;;;;13.75;9.40;;;;;;;8.16;87.34;93868.56;4972713;28;20053;-80
2023/01/20 07:23:03;;;;;;;16.80;9.85;;;;;;;8.66;87.29;93945.41;4958107;28;20129;-79
2023/01/20 07:25:29;;;;;;;16.52;8.68;;;;;;;8.97;87.59;93978.16;4980814;28;20053;-80
2023/01/20 07:27:56;;;;;;;19.30;10.38;;;;;;;8.96;87.44;93991.66;4987362;28;20046;-81
2023/01/20 07:30:22;;;;;;;21.70;10.93;;;;;;;8.63;86.79;93928.25;4966761;28;20483;-80
2023/01/20 07:32:47;;;;;;;17.77;10.10;;;;;;;8.93;86.97;93971.88;4976117;28;20049;-80
2023/01/20 07:35:13;;;;;;;15.13;7.63;;;;;;;9.19;86.06;94007.38;4979544;28;20065;-81
2023/01/20 07:37:39;;;;;;;15.85;8.10;;;;;;;8.99;86.42;93964.66;4970525;28;20046;-81
2023/01/20 07:40:06;;;;;;;17.05;8.48;;;;;;;8.73;86.36;93919.38;4963138;28;20604;-81
2023/01/20 07:42:31;;;;;;;18.20;8.60;;;;;;;8.68;85.07;93967.81;4985042;28;20393;-81
2023/01/20 07:44:57;;;;;;;12.48;7.93;;;;;;;9.09;85.28;94004.91;4969129;28;20357;-79
2023/01/20 07:47:22;;;;;;;16.30;8.05;;;;;;;8.73;85.46;93928.09;4979600;28;20030;-82
2023/01/20 07:49:47;;;;;;;16.80;8.68;;;;;;;8.59;85.92;93908.78;4977704;28;20046;-82
2023/01/20 07:52:13;;;;;;;19.42;8.55;;;;;;;8.53;85.71;93899.38;4954938;28;20049;-86
2023/01/20 07:54:38;;;;;;;15.85;8.40;;;;;;;8.68;85.47;93907.03;4957687;28;20464;-83
2023/01/20 07:57:04;;;;;;;19.30;8.82;;;;;;;8.32;85.67;93863.81;4959968;28;20519;-84
2023/01/20 07:59:29;;;;;;;15.55;9.02;;;;;;;7.99;85.69;93821.56;4983716;28;20478;-83
2023/01/20 08:01:55;;;;;;;15.32;8.57;;;;;;;8.52;84.63;93897.81;4964586;28;20495;-85
2023/01/20 08:04:20;;;;;;;23.88;11.38;;;;;;;7.93;85.84;93849.13;4959309;28;20053;-83
2023/01/20 08:06:46;;;;;;;27.27;13.02;;;;;;;8.19;86.23;93867.97;4980052;28;20792;-84
2023/01/20 08:09:15;;;;;;;22.67;12.73;;;;;;;8.92;86.61;93964.25;4957723;28;20046;-83
2023/01/20 08:11:40;;;;;;;25.23;11.93;;;;;;;8.20;85.59;93911.78;4956214;28;20615;-84
2023/01/20 08:14:06;;;;;;;20.02;11.45;;;;;;;7.81;86.45;93816.31;4977497;28;20074;-81
2023/01/20 08:16:31;;;;;;;17.50;10.38;;;;;;;7.80;85.48;93810.25;4980907;28;20139;-82
2023/01/20 08:18:57;;;;;;;20.48;12.27;;;;;;;7.99;86.83;93852.47;4977112;28;20049;-82
2023/01/20 08:21:29;;;;;;;24.75;13.20;;;;;;;8.56;86.88;93909.34;4978859;28;20042;-82
2023/01/20 08:23:56;;;;;;;27.75;14.50;;;;;;;8.62;87.28;93910.06;4979464;28;20105;-81
2023/01/20 08:26:23;;;;;;;27.30;15.13;;;;;;;7.86;87.20;93809.09;4957530;28;20085;-82
2023/01/20 08:28:50;;;;;;;54.13;30.05;;;;;;;8.52;87.18;93938.22;4979153;28;20618;-81
2023/01/20 08:31:19;;;;;;;25.95;14.43;;;;;;;8.72;86.92;93955.59;4969156;28;20100;-82
2023/01/20 08:33:46;;;;;;;25.25;11.73;;;;;;;8.39;87.36;93891.41;4960435;28;20038;-82
2023/01/20 08:36:21;;;;;;;24.50;9.68;;;;;;;8.87;87.15;93949.25;4987006;28;20515;-82
2023/01/20 08:38:48;;;;;;;35.88;10.82;;;;;;;8.85;87.42;93932.88;4977518;28;21752;-83
2023/01/20 08:41:17;;;;;;;20.60;10.25;;;;;;;8.34;86.75;93814.13;4980493;28;20038;-83
2023/01/20 08:43:42;;;;;;;19.98;9.65;;;;;;;8.77;86.87;93859.56;4965399;28;20042;-83
2023/01/20 08:46:11;;;;;;;17.77;9.65;;;;;;;9.10;86.82;93882.16;4972864;28;20066;-83
2023/01/20 08:48:39;;;;;;;18.08;9.55;;;;;;;8.70;86.07;93833.50;4990081;28;20045;-83
2023/01/20 08:51:29;;;;;;;21.20;9.85;;;;;;;9.34;86.03;93902.31;4981538;28;20119;-81
2023/01/20 08:53:55;;;;;;;18.83;9.02;;;;;;;9.03;86.12;93854.56;4974361;28;20046;-80
2023/01/20 08:56:20;;;;;;;15.73;7.57;;;;;;;9.46;85.47;93908.66;4952452;28;20147;-86
2023/01/20 08:58:46;;;;;;;14.43;6.80;;;;;;;8.95;85.89;93815.56;4984007;28;20044;-83
2023/01/20 09:01:15;;;;;;;16.35;6.85;;;;;;;9.32;85.86;93846.28;4985470;28;20440;-80
2023/01/20 09:03:41;;;;;;;10.68;6.40;;;;;;;9.07;85.64;93811.38;4982252;28;21904;-87
2023/01/20 09:06:07;;;;;;;12.05;5.65;;;;;;;9.48;86.29;93900.44;4947746;28;20528;-81
2023/01/20 09:08:34;;;;;;;12.25;6.85;;;;;;;8.99;85.57;93845.66;4956996;28;20061;-82
2023/01/20 09:11:26;;;;;;;10.98;5.60;;;;;;;9.33;84.58;93885.66;4950870;28;20042;-80
2023/01/20 09:13:52;;;;;;;15.10;5.85;;;;;;;8.84;84.37;93799.16;4975926;28;20055;-81
2023/01/20 09:16:18;;;;;;;12.35;5.85;;;;;;;8.80;83.99;93806.09;4970785;28;20302;-80
2023/01/20 09:18:43;;;;;;;16.02;5.68;;;;;;;9.29;83.00;93913.81;4961648;28;20038;-81
2023/01/20 09:21:10;;;;;;;10.00;4.38;;;;;;;8.85;81.15;93875.50;4985656;28;20041;-84
2023/01/20 09:23:38;;;;;;;10.20;4.88;;;;;;;9.34;83.77;93894.38;4962164;28;21126;-82
2023/01/20 09:26:05;;;;;;;9.80;4.20;;;;;;;9.25;82.54;93889.78;4966855;28;20511;-82
2023/01/20 09:28:30;;;;;;;14.13;6.93;;;;;;;8.87;84.82;93832.91;4960077;28;20042;-81
2023/01/20 09:31:00;;;;;;;7.78;3.70;;;;;;;8.96;83.33;93825.88;4967763;28;20049;-80
2023/01/20 09:33:26;;;;;;;7.82;3.22;;;;;;;9.28;84.25;93883.94;4980753;28;20053;-82
2023/01/20 09:35:55;;;;;;;7.10;3.28;;;;;;;8.33;82.62;93730.66;4984473;28;20050;-79
2023/01/20 09:44:04;;;;;;;7.65;3.45;;;;;;;9.45;83.79;93869.28;4968099;28;20159;-80
2023/01/20 09:46:42;;;;;;;6.95;2.40;;;;;;;9.46;83.23;93857.63;4958297;28;20045;-81
2023/01/20 09:53:04;;;;;;;9.68;2.95;;;;;;;9.04;82.92;93827.03;4936281;28;20181;-81
2023/01/20 09:55:47;;;;;;;6.57;2.97;;;;;;;8.55;83.26;93749.22;4936681;28;20799;-81
2023/01/20 09:58:44;;;;;;;8.02;3.42;;;;;;;9.31;83.14;93847.38;4963813;28;20084;-80
2023/01/20 10:01:16;;;;;;;4.95;2.50;;;;;;;8.42;82.17;93684.78;4977375;28;20042;-79
2023/01/20 10:04:12;;;;;;;5.38;2.47;;;;;;;9.58;82.81;93834.84;4978262;28;20044;-81
2023/01/20 10:06:43;;;;;;;5.50;2.05;;;;;;;8.85;83.34;93687.03;4954642;28;20054;-80
2023/01/20 10:09:13;;;;;;;6.10;2.00;;;;;;;9.82;82.59;93794.84;4974680;28;20050;-80
2023/01/20 10:11:42;;;;;;;5.80;2.20;;;;;;;9.57;83.44;93732.72;4982017;28;20634;-80
2023/01/20 10:14:26;;;;;;;5.50;2.88;;;;;;;10.17;82.04;93763.25;4966863;28;20050;-81
2023/01/20 10:17:19;;;;;;;7.90;3.53;;;;;;;10.15;80.38;93720.38;4981975;28;20062;-81
2023/01/20 10:20:06;;;;;;;4.20;1.98;;;;;;;11.24;80.45;93793.72;4968320;28;20096;-81
2023/01/20 10:22:46;;;;;;;3.30;1.40;;;;;;;10.83;78.58;93698.66;4976925;28;20504;-83
2023/01/20 10:25:19;;;;;;;2.55;1.58;;;;;;;11.35;78.92;93744.56;4970355;28;20073;-81
2023/01/20 10:27:51;;;;;;;6.50;2.58;;;;;;;11.33;74.20;93769.84;4983516;28;20038;-83
2023/01/20 10:30:18;;;;;;;2.20;1.50;;;;;;;11.48;73.71;93786.09;4988530;28;20412;-81
2023/01/20 10:33:09;;;;;;;5.25;1.58;;;;;;;11.75;71.99;93816.13;4975366;28;20129;-81
2023/01/20 10:35:55;;;;;;;9.75;3.05;;;;;;;10.36;73.44;93648.03;4953290;28;20050;-79
2023/01/20 10:38:45;;;;;;;4.75;2.40;;;;;;;10.93;74.01;93761.97;4971477;28;20852;-80
2023/01/20 10:41:29;;;;;;;4.95;2.20;;;;;;;11.54;73.97;93790.16;4961320;28;20052;-80
2023/01/20 10:43:56;;;;;;;19.95;5.07;;;;;;;11.61;73.54;93822.31;4981390;28;20050;-79
2023/01/20 10:46:25;;;;;;;10.82;3.53;;;;;;;11.63;73.56;93813.25;4971080;28;20157;-82
2023/01/20 10:48:53;;;;;;;5.13;2.38;;;;;;;11.58;73.72;93816.88;4981987;28;20034;-80
2023/01/20 10:51:22;;;;;;;4.53;1.98;;;;;;;11.58;73.58;93815.00;4963896;28;20038;-80
2023/01/20 10:54:15;;;;;;;6.38;2.58;;;;;;;11.26;73.98;93796.06;4979138;28;20046;-83
2023/01/20 10:56:52;;;;;;;5.70;2.60;;;;;;;10.92;74.68;93784.28;4978008;28;21024;-80
2023/01/20 10:59:31;;;;;;;4.40;2.08;;;;;;;10.92;74.87;93767.59;4965806;28;20065;-80
2023/01/20 11:02:04;;;;;;;5.13;3.10;;;;;;;10.91;75.07;93750.91;4971191;28;20335;-82
2023/01/20 11:04:30;;;;;;;5.40;2.63;;;;;;;10.21;75.05;93637.09;4974781;28;20162;-82
2023/01/20 11:06:59;;;;;;;6.13;2.75;;;;;;;11.18;74.97;93798.41;4979464;28;20049;-82
2023/01/20 11:09:36;;;;;;;5.95;2.25;;;;;;;11.34;75.17;93812.00;4979399;28;20422;-81
2023/01/20 11:12:08;;;;;;;7.13;2.35;;;;;;;10.77;74.61;93750.25;4975658;28;20042;-82
2023/01/20 11:14:34;;;;;;;4.03;2.10;;;;;;;10.97;74.38;93770.13;4980186;28;20636;-81
2023/01/20 11:17:05;;;;;;;3.83;2.10;;;;;;;11.20;74.50;93835.25;4967118;28;20046;-84
2023/01/20 11:20:03;;;;;;;4.70;1.98;;;;;;;11.09;73.93;93831.31;4980508;28;20036;-81
2023/01/20 11:22:30;;;;;;;8.65;2.80;;;;;;;11.08;73.25;93824.44;4970211;28;20239;-78
2023/01/20 11:24:58;;;;;;;6.55;3.40;;;;;;;10.86;73.04;93817.34;4978426;28;20329;-81
2023/01/20 11:27:29;;;;;;;7.22;3.53;;;;;;;10.41;74.63;93796.28;4967086;28;20103;-79
2023/01/20 11:30:04;;;;;;;6.55;2.83;;;;;;;9.90;77.58;93806.59;4967933;28;20581;-78
2023/01/20 11:32:31;;;;;;;3.40;1.90;;;;;;;9.70;79.30;93834.31;4954230;28;20042;-79
2023/01/20 11:34:58;;;;;;;4.78;2.17;;;;;;;9.35;82.46;93824.53;4966612;28;20090;-78
2023/01/20 11:37:36;;;;;;;12.27;3.58;;;;;;;8.93;84.04;93781.50;4963651;28;20525;-77
2023/01/20 11:40:26;;;;;;;7.75;3.83;;;;;;;9.05;85.49;93825.97;4965367;28;20112;-78
2023/01/20 11:42:53;;;;;;;13.25;4.57;;;;;;;8.90;86.86;93821.75;4971418;28;20488;-77
2023/01/20 11:45:23;;;;;;;10.48;5.30;;;;;;;8.83;87.16;93818.75;4971687;28;20050;-78
2023/01/20 11:48:22;;;;;;;15.75;7.07;;;;;;;8.75;87.04;93830.78;4973885;28;20042;-79
2023/01/20 11:50:53;;;;;;;11.63;6.07;;;;;;;8.62;86.95;93833.44;4946802;28;20051;-78
2023/01/20 11:53:33;;;;;;;16.17;6.03;;;;;;;7.90;87.03;93733.53;4964778;28;20375;-80
2023/01/20 11:56:04;;;;;;;8.45;2.95;;;;;;;7.67;82.40;93739.75;4967241;28;20040;-80
2023/01/20 11:58:49;;;;;;;5.63;2.10;;;;;;;7.83;80.25;93822.09;4981922;28;20039;-78
2023/01/20 12:01:26;;;;;;;3.17;1.23;;;;;;;7.91;80.28;93845.97;4960706;28;20413;-78
2023/01/20 12:03:58;;;;;;;2.35;1.20;;;;;;;7.75;79.68;93836.72;4971386;28;20133;-80
2023/01/20 12:06:25;;;;;;;;;;;;;;;7.43;80.93;93837.47;4972766;28;20497;-79
2023/01/20 12:09:11;;;;;;;2.60;1.38;;;;;;;7.22;81.08;93844.88;4958058;28;19922;-79
2023/01/20 12:11:44;;;;;;;2.30;1.23;;;;;;;6.57;81.64;93804.31;4977977;28;20136;-81
2023/01/20 12:14:19;;;;;;;3.28;1.63;;;;;;;6.67;81.68;93862.16;4961456;28;20042;-79
2023/01/20 12:16:59;;;;;;;3.65;1.98;;;;;;;5.44;84.31;93772.25;4958559;28;20050;-78
2023/01/20 12:19:34;;;;;;;2.90;1.30;;;;;;;5.77;86.64;93820.63;4978172;28;20042;-79
2023/01/20 12:22:05;;;;;;;6.90;1.67;;;;;;;6.02;87.61;93863.63;4980170;28;20289;-78
2023/01/20 12:25:09;;;;;;;3.20;1.70;;;;;;;6.05;89.61;93865.69;4976796;28;20136;-79
2023/01/20 12:27:42;;;;;;;5.47;1.92;;;;;;;5.79;89.89;93865.88;4964002;28;20108;-77
2023/01/20 12:30:34;;;;;;;6.28;2.20;;;;;;;4.60;89.61;93678.00;4978946;28;20050;-77
2023/01/20 12:33:00;;;;;;;5.20;2.85;;;;;;;5.87;90.95;93887.38;4980016;28;20483;-78
2023/01/20 12:35:32;;;;;;;7.63;2.72;;;;;;;5.89;91.82;93896.59;4976399;28;20225;-77
2023/01/20 12:38:07;;;;;;;5.85;2.50;;;;;;;5.71;91.79;93899.88;4975382;28;20142;-79
2023/01/20 12:40:50;;;;;;;3.97;1.80;;;;;;;5.34;85.55;93966.09;4968348;28;20046;-77
2023/01/20 12:43:36;;;;;;;4.63;2.00;;;;;;;5.15;89.00;93972.97;4984132;28;20774;-77
2023/01/20 12:46:17;;;;;;;2.50;1.45;;;;;;;4.71;87.19;93985.97;4964135;28;20046;-77
2023/01/20 12:49:01;;;;;;;1.27;1.00;;;;;;;4.50;88.44;93974.72;4964317;28;20038;-77
2023/01/20 12:52:00;;;;;;;2.15;1.08;;;;;;;4.40;89.23;93985.22;4977187;28;20057;-75
2023/01/20 12:54:40;;;;;;;3.88;0.80;;;;;;;4.26;88.66;93972.66;4962256;28;20081;-77
2023/01/20 12:57:17;;;;;;;3.45;0.80;;;;;;;4.10;88.60;93970.28;4978293;28;20062;-77
2023/01/20 12:59:48;;;;;;;5.97;1.00;;;;;;;4.05;90.65;93970.25;4979525;28;20057;-77
2023/01/20 13:02:51;;;;;;;1.67;0.85;;;;;;;3.96;90.77;93985.75;4959291;28;20547;-76
2023/01/20 13:05:56;;;;;;;3.60;1.10;;;;;;;3.73;89.91;93966.06;4971877;28;20054;-75
2023/01/20 13:08:42;;;;;;;3.30;1.60;;;;;;;3.66;91.17;93960.25;4967474;28;20038;-75